Time,TemperatureF,DewpointF,PressureIn,WindDirection,WindDirectionDegrees,WindSpeedMPH,WindSpeedGustMPH,Humidity,HourlyPrecipIn,Conditions,Clouds,dailyrainin,SolarRadiationWatts/m^2,SoftwareType,DateUTC
2013-11-16 00:01:00,63.0,47.0,-100.00,SSW,193,2.0,10.0,56,0.00,,,0.00,1.000000,,2013-11-16 07:01:00,
2013-11-16 00:42:00,64.0,49.0,-100.00,NW,304,8.0,14.0,59,0.00,,,0.00,1.000000,,2013-11-16 07:42:00,
2013-11-16 00:52:00,64.0,49.0,-100.00,NW,304,8.0,14.0,59,0.00,,,0.00,1.000000,,2013-11-16 07:52:00,
2013-11-16 01:01:00,64.0,49.0,-100.00,NW,304,8.0,14.0,59,0.00,,,0.00,1.000000,,2013-11-16 08:01:00,
2013-11-16 01:42:00,64.0,51.0,-100.00,WNW,297,6.0,15.0,62,0.00,,,0.00,1.000000,,2013-11-16 08:42:00,
2013-11-16 01:52:00,64.0,51.0,-100.00,WNW,297,6.0,15.0,62,0.00,,,0.00,1.000000,,2013-11-16 08:52:00,
2013-11-16 02:02:00,64.0,51.0,-100.00,WNW,297,6.0,15.0,62,0.00,,,0.00,1.000000,,2013-11-16 09:02:00,
2013-11-16 02:43:00,63.0,49.0,-100.00,WNW,285,5.0,10.0,61,0.00,,,0.00,1.000000,,2013-11-16 09:43:00,
2013-11-16 02:53:00,63.0,49.0,-100.00,WNW,285,5.0,10.0,61,0.00,,,0.00,1.000000,,2013-11-16 09:53:00,
2013-11-16 03:03:00,63.0,49.0,-100.00,WNW,285,5.0,10.0,61,0.00,,,0.00,1.000000,,2013-11-16 10:03:00,
2013-11-16 03:43:00,62.0,49.0,-100.00,WNW,301,7.0,14.0,63,0.00,,,0.00,1.000000,,2013-11-16 10:43:00,
2013-11-16 03:52:00,62.0,49.0,-100.00,WNW,301,7.0,14.0,63,0.00,,,0.00,1.000000,,2013-11-16 10:52:00,
2013-11-16 04:02:00,62.0,49.0,-100.00,WNW,301,7.0,14.0,63,0.00,,,0.00,1.000000,,2013-11-16 11:02:00,
2013-11-16 04:42:00,61.0,49.0,-100.00,West,259,3.0,11.0,64,0.00,,,0.00,1.000000,,2013-11-16 11:42:00,
2013-11-16 04:53:00,61.0,49.0,-100.00,West,259,3.0,11.0,64,0.00,,,0.00,1.000000,,2013-11-16 11:53:00,
2013-11-16 05:02:00,61.0,49.0,-100.00,West,259,3.0,11.0,64,0.00,,,0.00,1.000000,,2013-11-16 12:02:00,
2013-11-16 05:42:00,60.0,50.0,-100.00,West,263,5.0,9.0,69,0.00,,,0.00,1.000000,,2013-11-16 12:42:00,
2013-11-16 05:52:00,60.0,50.0,-100.00,West,263,5.0,9.0,69,0.00,,,0.00,1.000000,,2013-11-16 12:52:00,
2013-11-16 06:01:00,60.0,50.0,-100.00,West,263,5.0,9.0,69,0.00,,,0.00,1.000000,,2013-11-16 13:01:00,
2013-11-16 06:42:00,58.0,46.0,-100.00,NW,311,5.0,9.0,64,0.00,,,0.00,1.000000,,2013-11-16 13:42:00,
2013-11-16 06:52:00,58.0,46.0,-100.00,NW,311,5.0,9.0,64,0.00,,,0.00,1.000000,,2013-11-16 13:52:00,
2013-11-16 07:02:00,58.0,46.0,-100.00,NW,311,5.0,9.0,64,0.00,,,0.00,1.000000,,2013-11-16 14:02:00,
2013-11-16 07:42:00,57.0,46.0,-100.00,NNW,340,5.0,11.0,67,0.00,,,0.00,3.000000,,2013-11-16 14:42:00,
2013-11-16 07:52:00,57.0,46.0,-100.00,NNW,340,5.0,11.0,67,0.00,,,0.00,3.000000,,2013-11-16 14:52:00,
2013-11-16 08:02:00,57.0,46.0,-100.00,NNW,340,5.0,11.0,67,0.00,,,0.00,3.000000,,2013-11-16 15:02:00,
2013-11-16 08:43:00,63.0,48.0,-100.00,NNW,330,5.0,10.0,57,0.00,,,0.00,87.000000,,2013-11-16 15:43:00,
2013-11-16 08:53:00,63.0,48.0,-100.00,NNW,330,5.0,10.0,57,0.00,,,0.00,87.000000,,2013-11-16 15:53:00,
2013-11-16 09:03:00,63.0,48.0,-100.00,NNW,330,5.0,10.0,57,0.00,,,0.00,87.000000,,2013-11-16 16:03:00,
2013-11-16 09:43:00,67.0,48.0,-100.00,SW,225,4.0,8.0,50,0.00,,,0.00,304.000000,,2013-11-16 16:43:00,
2013-11-16 09:53:00,67.0,48.0,-100.00,SW,225,4.0,8.0,50,0.00,,,0.00,304.000000,,2013-11-16 16:53:00,
2013-11-16 10:02:00,67.0,48.0,-100.00,SW,225,4.0,8.0,50,0.00,,,0.00,304.000000,,2013-11-16 17:02:00,
2013-11-16 10:43:00,70.0,49.0,-100.00,SSE,155,3.0,9.0,48,0.00,,,0.00,460.000000,,2013-11-16 17:43:00,
2013-11-16 10:52:00,70.0,49.0,-100.00,SSE,155,3.0,9.0,48,0.00,,,0.00,460.000000,,2013-11-16 17:52:00,
2013-11-16 11:02:00,70.0,49.0,-100.00,SSE,155,3.0,9.0,48,0.00,,,0.00,460.000000,,2013-11-16 18:02:00,
2013-11-16 11:42:00,72.0,48.0,-100.00,NNE,26,3.0,8.0,42,0.00,,,0.00,582.000000,,2013-11-16 18:42:00,
2013-11-16 11:52:00,72.0,48.0,-100.00,NNE,26,3.0,8.0,42,0.00,,,0.00,582.000000,,2013-11-16 18:52:00,
2013-11-16 12:02:00,72.0,48.0,-100.00,NNE,26,3.0,8.0,42,0.00,,,0.00,582.000000,,2013-11-16 19:02:00,
2013-11-16 12:42:00,74.0,44.0,-100.00,West,272,8.0,16.0,34,0.00,,,0.00,656.000000,,2013-11-16 19:42:00,
2013-11-16 12:53:00,74.0,44.0,-100.00,West,272,8.0,16.0,34,0.00,,,0.00,656.000000,,2013-11-16 19:53:00,
2013-11-16 13:01:00,74.0,44.0,-100.00,West,272,8.0,16.0,34,0.00,,,0.00,656.000000,,2013-11-16 20:01:00,
2013-11-16 13:42:00,75.0,41.0,-100.00,WNW,283,8.0,15.0,30,0.00,,,0.00,656.000000,,2013-11-16 20:42:00,
2013-11-16 13:53:00,75.0,41.0,-100.00,WNW,283,8.0,15.0,30,0.00,,,0.00,656.000000,,2013-11-16 20:53:00,
2013-11-16 14:01:00,75.0,41.0,-100.00,WNW,283,8.0,15.0,30,0.00,,,0.00,656.000000,,2013-11-16 21:01:00,
2013-11-16 14:44:00,76.0,41.0,-100.00,WSW,255,8.0,16.0,28,0.00,,,0.00,593.000000,,2013-11-16 21:44:00,
2013-11-16 14:54:00,76.0,41.0,-100.00,WSW,255,8.0,16.0,28,0.00,,,0.00,593.000000,,2013-11-16 21:54:00,
2013-11-16 15:04:00,76.0,41.0,-100.00,WSW,255,8.0,16.0,28,0.00,,,0.00,593.000000,,2013-11-16 22:04:00,
2013-11-16 15:42:00,76.0,34.0,-100.00,West,261,10.0,17.0,22,0.00,,,0.00,474.000000,,2013-11-16 22:42:00,
2013-11-16 15:53:00,76.0,34.0,-100.00,West,261,10.0,17.0,22,0.00,,,0.00,474.000000,,2013-11-16 22:53:00,
2013-11-16 16:03:00,76.0,34.0,-100.00,West,261,10.0,17.0,22,0.00,,,0.00,474.000000,,2013-11-16 23:03:00,
2013-11-16 16:43:00,75.0,32.0,-100.00,West,261,11.0,16.0,21,0.00,,,0.00,310.000000,,2013-11-16 23:43:00,
2013-11-16 16:53:00,75.0,32.0,-100.00,West,261,11.0,16.0,21,0.00,,,0.00,310.000000,,2013-11-16 23:53:00,
2013-11-16 17:02:00,75.0,32.0,-100.00,West,261,11.0,16.0,21,0.00,,,0.00,310.000000,,2013-11-17 00:02:00,
2013-11-16 18:42:00,67.0,35.0,-100.00,WNW,300,4.0,10.0,30,0.00,,,0.00,5.000000,,2013-11-17 01:42:00,
2013-11-16 18:52:00,67.0,35.0,-100.00,WNW,300,4.0,10.0,30,0.00,,,0.00,5.000000,,2013-11-17 01:52:00,
2013-11-16 19:01:00,67.0,35.0,-100.00,WNW,300,4.0,10.0,30,0.00,,,0.00,5.000000,,2013-11-17 02:01:00,
2013-11-16 19:42:00,66.0,40.0,-100.00,WNW,287,6.0,10.0,38,0.00,,,0.00,1.000000,,2013-11-17 02:42:00,
2013-11-16 19:52:00,66.0,40.0,-100.00,WNW,287,6.0,10.0,38,0.00,,,0.00,1.000000,,2013-11-17 02:52:00,
2013-11-16 20:02:00,66.0,40.0,-100.00,WNW,287,6.0,10.0,38,0.00,,,0.00,1.000000,,2013-11-17 03:02:00,
2013-11-16 20:44:00,66.0,43.0,-100.00,WNW,303,6.0,14.0,43,0.00,,,0.00,1.000000,,2013-11-17 03:44:00,
2013-11-16 20:56:00,66.0,43.0,-100.00,WNW,303,6.0,14.0,43,0.00,,,0.00,1.000000,,2013-11-17 03:56:00,
2013-11-16 21:02:00,-999.0,-99.9,-100.00,WNW,303,6.0,14.0,-999,-99.99,,,-99.99,1.000000,,2013-11-17 04:02:00,
2013-11-16 21:43:00,64.0,44.0,-100.00,WNW,282,5.0,10.0,48,0.00,,,0.00,1.000000,,2013-11-17 04:43:00,
2013-11-16 21:53:00,64.0,44.0,-100.00,WNW,282,5.0,10.0,48,0.00,,,0.00,1.000000,,2013-11-17 04:53:00,
2013-11-16 22:03:00,64.0,44.0,-100.00,WNW,282,5.0,10.0,48,0.00,,,0.00,1.000000,,2013-11-17 05:03:00,
2013-11-16 22:44:00,64.0,45.0,-100.00,West,280,5.0,10.0,50,0.00,,,0.00,1.000000,,2013-11-17 05:44:00,
2013-11-16 22:53:00,64.0,45.0,-100.00,West,280,5.0,10.0,50,0.00,,,0.00,1.000000,,2013-11-17 05:53:00,
2013-11-16 23:02:00,64.0,45.0,-100.00,West,280,5.0,10.0,50,0.00,,,0.00,1.000000,,2013-11-17 06:02:00,
2013-11-16 23:42:00,63.0,46.0,-100.00,West,277,4.0,11.0,54,0.00,,,0.00,1.000000,,2013-11-17 06:42:00,
2013-11-16 23:52:00,63.0,46.0,-100.00,West,277,4.0,11.0,54,0.00,,,0.00,1.000000,,2013-11-17 06:52:00,